sensor_id;sensor_type;location;lat;lon;timestamp;temperature;humidity
54202;DHT22;40108;53.152;5.844;2023-07-09T00:01:56;22.40;70.10
54202;DHT22;40108;53.152;5.844;2023-07-09T00:04:22;22.40;70.00
54202;DHT22;40108;53.152;5.844;2023-07-09T00:06:48;22.40;70.00
54202;DHT22;40108;53.152;5.844;2023-07-09T00:09:16;22.30;69.90
54202;DHT22;40108;53.152;5.844;2023-07-09T00:11:43;22.30;70.10
54202;DHT22;40108;53.152;5.844;2023-07-09T00:14:11;22.30;70.40
54202;DHT22;40108;53.152;5.844;2023-07-09T00:16:38;22.30;70.30
54202;DHT22;40108;53.152;5.844;2023-07-09T00:19:15;22.30;70.40
54202;DHT22;40108;53.152;5.844;2023-07-09T00:21:42;22.20;70.70
54202;DHT22;40108;53.152;5.844;2023-07-09T00:24:11;22.20;70.80
54202;DHT22;40108;53.152;5.844;2023-07-09T00:26:38;22.10;70.90
54202;DHT22;40108;53.152;5.844;2023-07-09T00:29:16;22.10;70.80
54202;DHT22;40108;53.152;5.844;2023-07-09T00:31:42;22.10;71.20
54202;DHT22;40108;53.152;5.844;2023-07-09T00:34:12;22.10;71.40
54202;DHT22;40108;53.152;5.844;2023-07-09T00:36:38;22.00;71.30
54202;DHT22;40108;53.152;5.844;2023-07-09T00:39:10;22.00;71.60
54202;DHT22;40108;53.152;5.844;2023-07-09T00:41:39;22.00;71.40
54202;DHT22;40108;53.152;5.844;2023-07-09T00:49:37;21.80;72.40
54202;DHT22;40108;53.152;5.844;2023-07-09T00:52:35;21.70;72.40
54202;DHT22;40108;53.152;5.844;2023-07-09T00:55:08;21.70;72.90
54202;DHT22;40108;53.152;5.844;2023-07-09T00:57:38;21.60;73.10
54202;DHT22;40108;53.152;5.844;2023-07-09T01:00:09;21.60;73.30
54202;DHT22;40108;53.152;5.844;2023-07-09T01:02:37;21.50;72.90
54202;DHT22;40108;53.152;5.844;2023-07-09T01:05:04;21.40;72.80
54202;DHT22;40108;53.152;5.844;2023-07-09T01:07:31;21.40;72.60
54202;DHT22;40108;53.152;5.844;2023-07-09T01:09:58;21.20;72.40
54202;DHT22;40108;53.152;5.844;2023-07-09T01:12:24;21.20;72.30
54202;DHT22;40108;53.152;5.844;2023-07-09T01:14:53;21.20;72.40
54202;DHT22;40108;53.152;5.844;2023-07-09T01:17:25;21.20;72.40
54202;DHT22;40108;53.152;5.844;2023-07-09T01:19:54;21.20;72.20
54202;DHT22;40108;53.152;5.844;2023-07-09T01:22:21;21.20;72.50
54202;DHT22;40108;53.152;5.844;2023-07-09T01:29:56;21.20;72.60
54202;DHT22;40108;53.152;5.844;2023-07-09T01:32:23;21.10;72.70
54202;DHT22;40108;53.152;5.844;2023-07-09T01:34:53;21.20;72.70
54202;DHT22;40108;53.152;5.844;2023-07-09T01:37:23;21.10;72.70
54202;DHT22;40108;53.152;5.844;2023-07-09T01:39:50;21.10;72.70
54202;DHT22;40108;53.152;5.844;2023-07-09T01:42:17;21.10;72.60
54202;DHT22;40108;53.152;5.844;2023-07-09T01:44:44;21.10;72.70
54202;DHT22;40108;53.152;5.844;2023-07-09T01:47:11;21.10;73.00
54202;DHT22;40108;53.152;5.844;2023-07-09T01:49:37;21.10;73.00
54202;DHT22;40108;53.152;5.844;2023-07-09T01:52:06;21.10;73.30
54202;DHT22;40108;53.152;5.844;2023-07-09T01:54:34;21.10;73.20
54202;DHT22;40108;53.152;5.844;2023-07-09T01:59:40;21.00;73.40
54202;DHT22;40108;53.152;5.844;2023-07-09T02:02:10;21.00;73.40
54202;DHT22;40108;53.152;5.844;2023-07-09T02:04:54;21.00;73.50
54202;DHT22;40108;53.152;5.844;2023-07-09T02:07:23;20.90;73.30
54202;DHT22;40108;53.152;5.844;2023-07-09T02:09:49;20.90;73.40
54202;DHT22;40108;53.152;5.844;2023-07-09T02:12:15;20.90;73.30
54202;DHT22;40108;53.152;5.844;2023-07-09T02:14:42;20.90;73.20
54202;DHT22;40108;53.152;5.844;2023-07-09T02:17:09;20.90;73.20
54202;DHT22;40108;53.152;5.844;2023-07-09T02:19:35;20.90;73.20
54202;DHT22;40108;53.152;5.844;2023-07-09T02:22:02;20.90;73.10
54202;DHT22;40108;53.152;5.844;2023-07-09T02:24:27;20.90;73.10
54202;DHT22;40108;53.152;5.844;2023-07-09T02:26:57;20.90;73.20
54202;DHT22;40108;53.152;5.844;2023-07-09T02:29:24;20.90;73.20
54202;DHT22;40108;53.152;5.844;2023-07-09T02:31:52;20.80;73.30
54202;DHT22;40108;53.152;5.844;2023-07-09T02:34:19;20.80;73.30
54202;DHT22;40108;53.152;5.844;2023-07-09T02:36:46;20.80;73.50
54202;DHT22;40108;53.152;5.844;2023-07-09T02:39:13;20.80;73.60
54202;DHT22;40108;53.152;5.844;2023-07-09T02:41:40;20.80;73.70
54202;DHT22;40108;53.152;5.844;2023-07-09T02:44:06;20.70;73.90
54202;DHT22;40108;53.152;5.844;2023-07-09T02:46:33;20.70;73.80
54202;DHT22;40108;53.152;5.844;2023-07-09T02:48:59;20.70;74.10
54202;DHT22;40108;53.152;5.844;2023-07-09T02:51:25;20.60;74.50
54202;DHT22;40108;53.152;5.844;2023-07-09T02:53:56;20.60;74.60
54202;DHT22;40108;53.152;5.844;2023-07-09T02:56:23;20.60;74.90
54202;DHT22;40108;53.152;5.844;2023-07-09T02:58:50;20.50;75.10
54202;DHT22;40108;53.152;5.844;2023-07-09T03:01:16;20.50;75.30
54202;DHT22;40108;53.152;5.844;2023-07-09T03:03:42;20.50;75.40
54202;DHT22;40108;53.152;5.844;2023-07-09T03:06:08;20.30;75.40
54202;DHT22;40108;53.152;5.844;2023-07-09T03:08:34;20.40;75.20
54202;DHT22;40108;53.152;5.844;2023-07-09T03:11:07;20.30;74.90
54202;DHT22;40108;53.152;5.844;2023-07-09T03:13:33;20.30;74.70
54202;DHT22;40108;53.152;5.844;2023-07-09T03:15:59;20.30;74.60
54202;DHT22;40108;53.152;5.844;2023-07-09T03:18:25;20.30;74.60
54202;DHT22;40108;53.152;5.844;2023-07-09T03:20:50;20.30;74.60
54202;DHT22;40108;53.152;5.844;2023-07-09T03:23:17;20.30;74.60
54202;DHT22;40108;53.152;5.844;2023-07-09T03:25:43;20.20;74.70
54202;DHT22;40108;53.152;5.844;2023-07-09T03:28:10;20.20;74.70
54202;DHT22;40108;53.152;5.844;2023-07-09T03:30:47;20.20;74.80
54202;DHT22;40108;53.152;5.844;2023-07-09T03:33:15;20.20;74.80
54202;DHT22;40108;53.152;5.844;2023-07-09T03:35:42;20.10;74.80
54202;DHT22;40108;53.152;5.844;2023-07-09T03:38:09;20.10;74.90
54202;DHT22;40108;53.152;5.844;2023-07-09T03:40:36;20.10;75.00
54202;DHT22;40108;53.152;5.844;2023-07-09T03:43:04;20.10;75.10
54202;DHT22;40108;53.152;5.844;2023-07-09T03:45:30;20.10;75.10
54202;DHT22;40108;53.152;5.844;2023-07-09T03:47:56;20.10;75.20
54202;DHT22;40108;53.152;5.844;2023-07-09T03:50:22;20.10;75.40
54202;DHT22;40108;53.152;5.844;2023-07-09T03:52:48;20.10;75.50
54202;DHT22;40108;53.152;5.844;2023-07-09T03:55:13;20.10;75.50
54202;DHT22;40108;53.152;5.844;2023-07-09T03:57:40;20.20;75.50
54202;DHT22;40108;53.152;5.844;2023-07-09T04:00:07;20.10;75.50
54202;DHT22;40108;53.152;5.844;2023-07-09T04:02:37;20.20;75.50
54202;DHT22;40108;53.152;5.844;2023-07-09T04:05:04;20.10;75.50
54202;DHT22;40108;53.152;5.844;2023-07-09T04:07:30;20.20;75.60
54202;DHT22;40108;53.152;5.844;2023-07-09T04:09:55;20.20;75.60
54202;DHT22;40108;53.152;5.844;2023-07-09T04:12:21;20.20;75.60
54202;DHT22;40108;53.152;5.844;2023-07-09T04:14:47;20.20;75.60
54202;DHT22;40108;53.152;5.844;2023-07-09T04:17:12;20.20;75.50
54202;DHT22;40108;53.152;5.844;2023-07-09T04:19:38;20.20;75.60
54202;DHT22;40108;53.152;5.844;2023-07-09T04:22:04;20.20;75.70
54202;DHT22;40108;53.152;5.844;2023-07-09T04:24:30;20.20;75.90
54202;DHT22;40108;53.152;5.844;2023-07-09T04:26:57;20.20;76.10
54202;DHT22;40108;53.152;5.844;2023-07-09T04:29:23;20.20;76.00
54202;DHT22;40108;53.152;5.844;2023-07-09T04:31:49;20.20;75.90
54202;DHT22;40108;53.152;5.844;2023-07-09T04:34:15;20.20;76.00
54202;DHT22;40108;53.152;5.844;2023-07-09T04:36:41;20.20;76.00
54202;DHT22;40108;53.152;5.844;2023-07-09T04:39:07;20.20;76.00
54202;DHT22;40108;53.152;5.844;2023-07-09T04:41:33;20.30;76.30
54202;DHT22;40108;53.152;5.844;2023-07-09T04:43:59;20.20;76.20
54202;DHT22;40108;53.152;5.844;2023-07-09T04:46:25;20.30;76.20
54202;DHT22;40108;53.152;5.844;2023-07-09T04:48:51;20.30;76.30
54202;DHT22;40108;53.152;5.844;2023-07-09T04:51:16;20.30;76.40
54202;DHT22;40108;53.152;5.844;2023-07-09T04:53:43;20.40;76.50
54202;DHT22;40108;53.152;5.844;2023-07-09T04:56:09;20.30;76.50
54202;DHT22;40108;53.152;5.844;2023-07-09T04:58:35;20.40;76.70
54202;DHT22;40108;53.152;5.844;2023-07-09T05:01:01;20.40;76.80
54202;DHT22;40108;53.152;5.844;2023-07-09T05:03:27;20.50;76.80
54202;DHT22;40108;53.152;5.844;2023-07-09T05:05:53;20.50;76.70
54202;DHT22;40108;53.152;5.844;2023-07-09T05:08:18;20.60;76.80
54202;DHT22;40108;53.152;5.844;2023-07-09T05:10:46;20.60;76.90
54202;DHT22;40108;53.152;5.844;2023-07-09T05:13:12;20.60;76.90
54202;DHT22;40108;53.152;5.844;2023-07-09T05:15:46;20.70;76.80
54202;DHT22;40108;53.152;5.844;2023-07-09T05:18:13;20.80;76.80
54202;DHT22;40108;53.152;5.844;2023-07-09T05:20:39;20.80;76.90
54202;DHT22;40108;53.152;5.844;2023-07-09T05:23:06;20.80;76.80
54202;DHT22;40108;53.152;5.844;2023-07-09T05:25:32;20.80;76.90
54202;DHT22;40108;53.152;5.844;2023-07-09T05:27:57;20.90;77.00
54202;DHT22;40108;53.152;5.844;2023-07-09T05:30:23;20.90;77.30
54202;DHT22;40108;53.152;5.844;2023-07-09T05:32:49;21.00;77.40
54202;DHT22;40108;53.152;5.844;2023-07-09T05:35:15;21.10;77.60
54202;DHT22;40108;53.152;5.844;2023-07-09T05:37:41;21.10;77.80
54202;DHT22;40108;53.152;5.844;2023-07-09T05:40:08;21.10;77.80
54202;DHT22;40108;53.152;5.844;2023-07-09T05:42:34;21.10;78.10
54202;DHT22;40108;53.152;5.844;2023-07-09T05:45:00;21.10;78.00
54202;DHT22;40108;53.152;5.844;2023-07-09T05:47:26;21.10;78.50
54202;DHT22;40108;53.152;5.844;2023-07-09T05:49:52;21.10;78.60
54202;DHT22;40108;53.152;5.844;2023-07-09T05:52:21;21.30;78.80
54202;DHT22;40108;53.152;5.844;2023-07-09T05:54:49;21.30;78.50
54202;DHT22;40108;53.152;5.844;2023-07-09T05:57:15;21.40;78.20
54202;DHT22;40108;53.152;5.844;2023-07-09T05:59:41;21.60;77.90
54202;DHT22;40108;53.152;5.844;2023-07-09T06:02:18;21.60;77.60
54202;DHT22;40108;53.152;5.844;2023-07-09T06:04:44;21.80;77.70
54202;DHT22;40108;53.152;5.844;2023-07-09T06:07:11;21.90;77.50
54202;DHT22;40108;53.152;5.844;2023-07-09T06:09:37;22.00;77.60
54202;DHT22;40108;53.152;5.844;2023-07-09T06:12:03;22.10;77.90
54202;DHT22;40108;53.152;5.844;2023-07-09T06:14:31;22.20;77.90
54202;DHT22;40108;53.152;5.844;2023-07-09T06:16:58;22.30;77.90
54202;DHT22;40108;53.152;5.844;2023-07-09T06:19:24;22.30;77.90
54202;DHT22;40108;53.152;5.844;2023-07-09T06:21:50;22.40;77.70
54202;DHT22;40108;53.152;5.844;2023-07-09T06:24:15;22.50;77.60
54202;DHT22;40108;53.152;5.844;2023-07-09T06:26:41;22.50;77.50
54202;DHT22;40108;53.152;5.844;2023-07-09T06:29:07;22.60;77.50
54202;DHT22;40108;53.152;5.844;2023-07-09T06:31:33;22.70;77.30
54202;DHT22;40108;53.152;5.844;2023-07-09T06:33:59;22.80;76.90
54202;DHT22;40108;53.152;5.844;2023-07-09T06:36:24;23.00;76.90
54202;DHT22;40108;53.152;5.844;2023-07-09T06:38:50;23.10;76.20
54202;DHT22;40108;53.152;5.844;2023-07-09T06:41:16;23.40;76.10
54202;DHT22;40108;53.152;5.844;2023-07-09T06:43:42;23.70;75.40
54202;DHT22;40108;53.152;5.844;2023-07-09T06:46:11;24.00;74.60
54202;DHT22;40108;53.152;5.844;2023-07-09T06:48:37;24.30;73.80
54202;DHT22;40108;53.152;5.844;2023-07-09T06:51:03;24.50;73.60
54202;DHT22;40108;53.152;5.844;2023-07-09T06:53:29;24.70;73.50
54202;DHT22;40108;53.152;5.844;2023-07-09T06:55:56;24.80;72.90
54202;DHT22;40108;53.152;5.844;2023-07-09T06:58:25;24.80;71.70
54202;DHT22;40108;53.152;5.844;2023-07-09T07:00:54;24.80;71.60
54202;DHT22;40108;53.152;5.844;2023-07-09T07:03:21;24.80;72.30
54202;DHT22;40108;53.152;5.844;2023-07-09T07:05:50;24.80;72.20
54202;DHT22;40108;53.152;5.844;2023-07-09T07:08:18;24.80;72.70
54202;DHT22;40108;53.152;5.844;2023-07-09T07:10:44;24.90;72.80
54202;DHT22;40108;53.152;5.844;2023-07-09T07:13:12;25.10;73.10
54202;DHT22;40108;53.152;5.844;2023-07-09T07:15:38;25.20;73.40
54202;DHT22;40108;53.152;5.844;2023-07-09T07:18:05;25.50;72.80
54202;DHT22;40108;53.152;5.844;2023-07-09T07:20:31;25.60;72.00
54202;DHT22;40108;53.152;5.844;2023-07-09T07:22:57;25.90;72.40
54202;DHT22;40108;53.152;5.844;2023-07-09T07:25:23;26.10;71.40
54202;DHT22;40108;53.152;5.844;2023-07-09T07:27:50;26.40;71.10
54202;DHT22;40108;53.152;5.844;2023-07-09T07:30:16;26.60;70.60
54202;DHT22;40108;53.152;5.844;2023-07-09T07:32:45;26.80;70.70
54202;DHT22;40108;53.152;5.844;2023-07-09T07:35:11;27.10;70.20
54202;DHT22;40108;53.152;5.844;2023-07-09T07:37:36;27.10;70.00
54202;DHT22;40108;53.152;5.844;2023-07-09T07:40:02;27.00;70.40
54202;DHT22;40108;53.152;5.844;2023-07-09T07:42:30;27.00;70.50
54202;DHT22;40108;53.152;5.844;2023-07-09T07:44:56;27.10;70.40
54202;DHT22;40108;53.152;5.844;2023-07-09T07:47:22;27.20;70.30
54202;DHT22;40108;53.152;5.844;2023-07-09T07:49:48;27.30;69.80
54202;DHT22;40108;53.152;5.844;2023-07-09T07:52:16;27.20;68.60
54202;DHT22;40108;53.152;5.844;2023-07-09T07:54:42;27.10;69.50
54202;DHT22;40108;53.152;5.844;2023-07-09T07:57:08;27.30;70.10
54202;DHT22;40108;53.152;5.844;2023-07-09T07:59:35;27.40;70.30
54202;DHT22;40108;53.152;5.844;2023-07-09T08:02:02;27.50;69.40
54202;DHT22;40108;53.152;5.844;2023-07-09T08:04:28;27.50;66.60
54202;DHT22;40108;53.152;5.844;2023-07-09T08:06:54;27.60;66.60
54202;DHT22;40108;53.152;5.844;2023-07-09T08:09:19;27.80;66.00
54202;DHT22;40108;53.152;5.844;2023-07-09T08:11:45;28.00;64.70
54202;DHT22;40108;53.152;5.844;2023-07-09T08:14:11;27.80;63.90
54202;DHT22;40108;53.152;5.844;2023-07-09T08:16:38;27.80;62.70
54202;DHT22;40108;53.152;5.844;2023-07-09T08:19:03;27.80;62.90
54202;DHT22;40108;53.152;5.844;2023-07-09T08:21:29;27.70;62.70
54202;DHT22;40108;53.152;5.844;2023-07-09T08:23:55;27.80;63.50
54202;DHT22;40108;53.152;5.844;2023-07-09T08:26:21;27.80;61.60
54202;DHT22;40108;53.152;5.844;2023-07-09T08:28:46;27.80;60.80
54202;DHT22;40108;53.152;5.844;2023-07-09T08:31:13;27.90;60.80
54202;DHT22;40108;53.152;5.844;2023-07-09T08:33:39;28.00;61.40
54202;DHT22;40108;53.152;5.844;2023-07-09T08:36:05;28.10;61.40
54202;DHT22;40108;53.152;5.844;2023-07-09T08:38:31;28.20;60.30
54202;DHT22;40108;53.152;5.844;2023-07-09T08:44:03;28.40;58.60
54202;DHT22;40108;53.152;5.844;2023-07-09T08:47:06;28.50;59.00
54202;DHT22;40108;53.152;5.844;2023-07-09T08:52:27;28.80;59.50
54202;DHT22;40108;53.152;5.844;2023-07-09T08:54:55;29.00;59.80
54202;DHT22;40108;53.152;5.844;2023-07-09T08:57:26;29.00;57.50
54202;DHT22;40108;53.152;5.844;2023-07-09T09:00:07;29.00;59.00
54202;DHT22;40108;53.152;5.844;2023-07-09T09:02:49;29.10;58.50
54202;DHT22;40108;53.152;5.844;2023-07-09T09:05:19;29.10;56.30
54202;DHT22;40108;53.152;5.844;2023-07-09T09:07:51;29.00;55.60
54202;DHT22;40108;53.152;5.844;2023-07-09T09:10:33;28.90;54.60
54202;DHT22;40108;53.152;5.844;2023-07-09T09:13:13;28.80;54.90
54202;DHT22;40108;53.152;5.844;2023-07-09T09:15:41;28.80;54.10
54202;DHT22;40108;53.152;5.844;2023-07-09T09:18:27;28.80;51.80
54202;DHT22;40108;53.152;5.844;2023-07-09T09:23:28;29.00;48.60
54202;DHT22;40108;53.152;5.844;2023-07-09T09:25:57;29.00;50.10
54202;DHT22;40108;53.152;5.844;2023-07-09T09:28:26;29.10;50.90
54202;DHT22;40108;53.152;5.844;2023-07-09T09:30:52;29.20;48.40
54202;DHT22;40108;53.152;5.844;2023-07-09T09:33:18;29.30;48.60
54202;DHT22;40108;53.152;5.844;2023-07-09T09:35:45;29.30;49.30
54202;DHT22;40108;53.152;5.844;2023-07-09T09:38:15;29.30;49.40
54202;DHT22;40108;53.152;5.844;2023-07-09T09:40:41;29.30;47.70
54202;DHT22;40108;53.152;5.844;2023-07-09T09:43:20;29.30;49.20
54202;DHT22;40108;53.152;5.844;2023-07-09T09:45:49;29.40;49.50
54202;DHT22;40108;53.152;5.844;2023-07-09T09:48:18;29.60;50.30
54202;DHT22;40108;53.152;5.844;2023-07-09T09:50:46;29.80;49.40
54202;DHT22;40108;53.152;5.844;2023-07-09T09:53:19;29.90;48.50
54202;DHT22;40108;53.152;5.844;2023-07-09T09:55:45;30.00;47.60
54202;DHT22;40108;53.152;5.844;2023-07-09T09:58:14;30.10;45.70
54202;DHT22;40108;53.152;5.844;2023-07-09T10:00:40;30.00;45.50
54202;DHT22;40108;53.152;5.844;2023-07-09T10:03:06;30.00;44.90
54202;DHT22;40108;53.152;5.844;2023-07-09T10:05:59;30.00;46.00
54202;DHT22;40108;53.152;5.844;2023-07-09T10:13:49;30.00;46.30
54202;DHT22;40108;53.152;5.844;2023-07-09T10:16:27;30.10;48.70
54202;DHT22;40108;53.152;5.844;2023-07-09T10:21:51;30.40;48.90
54202;DHT22;40108;53.152;5.844;2023-07-09T10:24:51;30.60;47.10
54202;DHT22;40108;53.152;5.844;2023-07-09T10:27:39;30.60;45.20
54202;DHT22;40108;53.152;5.844;2023-07-09T10:32:50;30.60;45.60
54202;DHT22;40108;53.152;5.844;2023-07-09T10:40:38;31.00;44.70
54202;DHT22;40108;53.152;5.844;2023-07-09T10:43:06;31.00;44.90
54202;DHT22;40108;53.152;5.844;2023-07-09T10:45:42;31.30;45.40
54202;DHT22;40108;53.152;5.844;2023-07-09T10:48:14;31.50;46.90
54202;DHT22;40108;53.152;5.844;2023-07-09T10:50:50;31.60;47.00
54202;DHT22;40108;53.152;5.844;2023-07-09T10:53:43;31.70;45.30
54202;DHT22;40108;53.152;5.844;2023-07-09T10:56:10;31.90;46.50
54202;DHT22;40108;53.152;5.844;2023-07-09T10:58:48;31.90;44.60
54202;DHT22;40108;53.152;5.844;2023-07-09T11:01:16;32.00;44.30
54202;DHT22;40108;53.152;5.844;2023-07-09T11:03:51;32.10;44.10
54202;DHT22;40108;53.152;5.844;2023-07-09T11:06:28;32.20;43.90
54202;DHT22;40108;53.152;5.844;2023-07-09T11:08:57;32.20;44.10
54202;DHT22;40108;53.152;5.844;2023-07-09T11:11:47;32.30;43.90
54202;DHT22;40108;53.152;5.844;2023-07-09T11:15:20;32.40;43.00
54202;DHT22;40108;53.152;5.844;2023-07-09T11:17:20;32.50;44.00
54202;DHT22;40108;53.152;5.844;2023-07-09T11:19:53;32.50;42.30
54202;DHT22;40108;53.152;5.844;2023-07-09T11:22:25;32.60;45.20
54202;DHT22;40108;53.152;5.844;2023-07-09T11:25:03;32.70;42.60
54202;DHT22;40108;53.152;5.844;2023-07-09T11:27:30;32.50;41.50
54202;DHT22;40108;53.152;5.844;2023-07-09T11:30:18;32.60;44.70
54202;DHT22;40108;53.152;5.844;2023-07-09T11:32:51;32.70;43.00
54202;DHT22;40108;53.152;5.844;2023-07-09T11:35:23;32.60;40.10
54202;DHT22;40108;53.152;5.844;2023-07-09T11:37:49;32.50;42.30
54202;DHT22;40108;53.152;5.844;2023-07-09T11:40:15;32.50;42.80
54202;DHT22;40108;53.152;5.844;2023-07-09T11:42:58;32.60;42.40
54202;DHT22;40108;53.152;5.844;2023-07-09T11:45:33;32.70;41.50
54202;DHT22;40108;53.152;5.844;2023-07-09T11:48:09;32.70;42.40
54202;DHT22;40108;53.152;5.844;2023-07-09T11:50:43;32.50;41.30
54202;DHT22;40108;53.152;5.844;2023-07-09T11:53:24;32.60;43.70
54202;DHT22;40108;53.152;5.844;2023-07-09T11:55:51;32.50;42.10
54202;DHT22;40108;53.152;5.844;2023-07-09T11:58:18;32.50;44.00
54202;DHT22;40108;53.152;5.844;2023-07-09T12:00:46;32.50;41.80
54202;DHT22;40108;53.152;5.844;2023-07-09T12:03:26;32.50;42.50
54202;DHT22;40108;53.152;5.844;2023-07-09T12:06:05;32.60;42.50
54202;DHT22;40108;53.152;5.844;2023-07-09T12:08:36;32.50;42.50
54202;DHT22;40108;53.152;5.844;2023-07-09T12:11:03;32.60;45.70
54202;DHT22;40108;53.152;5.844;2023-07-09T12:13:29;32.50;40.70
54202;DHT22;40108;53.152;5.844;2023-07-09T12:16:01;32.30;42.40
54202;DHT22;40108;53.152;5.844;2023-07-09T12:18:29;32.20;40.10
54202;DHT22;40108;53.152;5.844;2023-07-09T12:20:56;32.20;42.10
54202;DHT22;40108;53.152;5.844;2023-07-09T12:23:31;32.00;41.20
54202;DHT22;40108;53.152;5.844;2023-07-09T12:26:00;31.70;42.20
54202;DHT22;40108;53.152;5.844;2023-07-09T12:28:28;31.50;43.20
54202;DHT22;40108;53.152;5.844;2023-07-09T12:30:54;31.30;43.30
54202;DHT22;40108;53.152;5.844;2023-07-09T12:33:25;31.20;45.10
54202;DHT22;40108;53.152;5.844;2023-07-09T12:36:10;31.10;44.70
54202;DHT22;40108;53.152;5.844;2023-07-09T12:38:44;31.10;44.60
54202;DHT22;40108;53.152;5.844;2023-07-09T12:41:24;31.00;44.50
54202;DHT22;40108;53.152;5.844;2023-07-09T12:43:52;31.10;44.80
54202;DHT22;40108;53.152;5.844;2023-07-09T12:46:19;31.10;45.10
54202;DHT22;40108;53.152;5.844;2023-07-09T12:48:46;31.10;45.60
54202;DHT22;40108;53.152;5.844;2023-07-09T12:51:28;31.30;43.60
54202;DHT22;40108;53.152;5.844;2023-07-09T12:54:11;31.30;43.00
54202;DHT22;40108;53.152;5.844;2023-07-09T12:56:41;31.20;42.50
54202;DHT22;40108;53.152;5.844;2023-07-09T12:59:27;30.90;42.50
54202;DHT22;40108;53.152;5.844;2023-07-09T13:04:33;30.60;44.20
54202;DHT22;40108;53.152;5.844;2023-07-09T13:07:02;30.40;42.10
54202;DHT22;40108;53.152;5.844;2023-07-09T13:09:28;30.30;42.60
54202;DHT22;40108;53.152;5.844;2023-07-09T13:11:55;30.40;44.90
54202;DHT22;40108;53.152;5.844;2023-07-09T13:14:24;30.30;41.60
54202;DHT22;40108;53.152;5.844;2023-07-09T13:17:03;30.20;42.00
54202;DHT22;40108;53.152;5.844;2023-07-09T13:19:28;29.90;42.80
54202;DHT22;40108;53.152;5.844;2023-07-09T13:21:54;29.70;43.40
54202;DHT22;40108;53.152;5.844;2023-07-09T13:24:27;29.50;43.80
54202;DHT22;40108;53.152;5.844;2023-07-09T13:26:53;29.40;45.20
54202;DHT22;40108;53.152;5.844;2023-07-09T13:29:20;29.20;47.40
54202;DHT22;40108;53.152;5.844;2023-07-09T13:31:47;29.10;47.50
54202;DHT22;40108;53.152;5.844;2023-07-09T13:34:21;28.80;45.10
54202;DHT22;40108;53.152;5.844;2023-07-09T13:36:50;28.70;47.30
54202;DHT22;40108;53.152;5.844;2023-07-09T13:39:17;28.60;47.30
54202;DHT22;40108;53.152;5.844;2023-07-09T13:41:47;28.60;47.50
54202;DHT22;40108;53.152;5.844;2023-07-09T13:44:25;28.70;48.80
54202;DHT22;40108;53.152;5.844;2023-07-09T13:46:51;28.80;46.60
54202;DHT22;40108;53.152;5.844;2023-07-09T13:49:19;28.90;46.20
54202;DHT22;40108;53.152;5.844;2023-07-09T13:51:50;29.00;47.40
54202;DHT22;40108;53.152;5.844;2023-07-09T13:54:19;29.00;47.60
54202;DHT22;40108;53.152;5.844;2023-07-09T13:56:47;28.90;48.80
54202;DHT22;40108;53.152;5.844;2023-07-09T13:59:23;28.90;46.90
54202;DHT22;40108;53.152;5.844;2023-07-09T14:01:51;28.90;48.70
54202;DHT22;40108;53.152;5.844;2023-07-09T14:04:19;28.80;46.50
54202;DHT22;40108;53.152;5.844;2023-07-09T14:06:44;28.70;45.30
54202;DHT22;40108;53.152;5.844;2023-07-09T14:09:14;28.60;46.40
54202;DHT22;40108;53.152;5.844;2023-07-09T14:11:48;28.50;46.00
54202;DHT22;40108;53.152;5.844;2023-07-09T14:14:30;28.30;45.00
54202;DHT22;40108;53.152;5.844;2023-07-09T14:16:57;28.10;47.30
54202;DHT22;40108;53.152;5.844;2023-07-09T14:19:26;27.90;47.70
54202;DHT22;40108;53.152;5.844;2023-07-09T14:21:53;27.40;49.80
54202;DHT22;40108;53.152;5.844;2023-07-09T14:24:25;27.10;47.80
54202;DHT22;40108;53.152;5.844;2023-07-09T14:26:53;26.80;48.40
54202;DHT22;40108;53.152;5.844;2023-07-09T14:29:20;26.60;50.20
54202;DHT22;40108;53.152;5.844;2023-07-09T14:31:46;26.40;53.50
54202;DHT22;40108;53.152;5.844;2023-07-09T14:36:47;26.10;60.00
54202;DHT22;40108;53.152;5.844;2023-07-09T14:39:13;25.80;62.10
54202;DHT22;40108;53.152;5.844;2023-07-09T14:41:40;25.50;62.10
54202;DHT22;40108;53.152;5.844;2023-07-09T14:44:28;25.30;63.30
54202;DHT22;40108;53.152;5.844;2023-07-09T14:46:56;25.10;65.20
54202;DHT22;40108;53.152;5.844;2023-07-09T14:49:22;24.80;67.50
54202;DHT22;40108;53.152;5.844;2023-07-09T14:51:50;24.50;70.10
54202;DHT22;40108;53.152;5.844;2023-07-09T14:54:27;24.30;71.80
54202;DHT22;40108;53.152;5.844;2023-07-09T14:56:55;24.10;71.80
54202;DHT22;40108;53.152;5.844;2023-07-09T14:59:23;23.90;73.40
54202;DHT22;40108;53.152;5.844;2023-07-09T15:01:49;23.80;76.10
54202;DHT22;40108;53.152;5.844;2023-07-09T15:06:51;23.40;79.70
54202;DHT22;40108;53.152;5.844;2023-07-09T15:09:24;23.10;80.10
54202;DHT22;40108;53.152;5.844;2023-07-09T15:11:52;23.00;79.70
54202;DHT22;40108;53.152;5.844;2023-07-09T15:14:19;22.70;82.40
54202;DHT22;40108;53.152;5.844;2023-07-09T15:16:47;22.30;85.00
54202;DHT22;40108;53.152;5.844;2023-07-09T15:19:17;22.00;85.70
54202;DHT22;40108;53.152;5.844;2023-07-09T15:21:43;21.80;86.20
54202;DHT22;40108;53.152;5.844;2023-07-09T15:24:21;21.70;87.50
54202;DHT22;40108;53.152;5.844;2023-07-09T15:26:51;21.70;87.40
54202;DHT22;40108;53.152;5.844;2023-07-09T15:29:18;21.70;87.20
54202;DHT22;40108;53.152;5.844;2023-07-09T15:31:44;21.70;87.30
54202;DHT22;40108;53.152;5.844;2023-07-09T15:34:10;21.70;87.50
54202;DHT22;40108;53.152;5.844;2023-07-09T15:36:36;21.70;87.90
54202;DHT22;40108;53.152;5.844;2023-07-09T15:39:02;21.70;88.10
54202;DHT22;40108;53.152;5.844;2023-07-09T15:41:28;21.70;88.30
54202;DHT22;40108;53.152;5.844;2023-07-09T15:43:54;21.70;88.60
54202;DHT22;40108;53.152;5.844;2023-07-09T15:46:21;21.60;88.40
54202;DHT22;40108;53.152;5.844;2023-07-09T15:48:49;21.60;88.50
54202;DHT22;40108;53.152;5.844;2023-07-09T15:51:15;21.60;88.20
54202;DHT22;40108;53.152;5.844;2023-07-09T15:53:41;21.60;88.60
54202;DHT22;40108;53.152;5.844;2023-07-09T15:56:27;21.60;88.50
54202;DHT22;40108;53.152;5.844;2023-07-09T15:58:56;21.50;88.30
54202;DHT22;40108;53.152;5.844;2023-07-09T16:01:23;21.50;88.10
54202;DHT22;40108;53.152;5.844;2023-07-09T16:03:58;21.40;88.70
54202;DHT22;40108;53.152;5.844;2023-07-09T16:06:24;21.30;88.20
54202;DHT22;40108;53.152;5.844;2023-07-09T16:08:50;21.20;88.30
54202;DHT22;40108;53.152;5.844;2023-07-09T16:11:21;21.10;88.50
54202;DHT22;40108;53.152;5.844;2023-07-09T16:13:51;21.00;88.50
54202;DHT22;40108;53.152;5.844;2023-07-09T16:16:20;20.80;88.60
54202;DHT22;40108;53.152;5.844;2023-07-09T16:54:56;19.80;92.20
54202;DHT22;40108;53.152;5.844;2023-07-09T16:57:27;19.70;92.40
54202;DHT22;40108;53.152;5.844;2023-07-09T16:59:56;19.60;92.70
54202;DHT22;40108;53.152;5.844;2023-07-09T17:02:31;19.50;92.90
54202;DHT22;40108;53.152;5.844;2023-07-09T17:04:59;19.50;93.20